首页
METAR-TAF:

METAR-TAF

机场 :

Gillam, 曼尼托巴, 加拿大

纬度: 56-21N, 经度: 094-42W, 海拔: 145米

当前天气观测

该预报发布于28分钟前的21:00 UTC
风速5节,风向,在北转东北东转东南之间变化
温度 19°C
湿度 78%
气压 995 hPa
能見度: 24.1公里
阴天层高于2800英尺
小雨

METAR: CYGX 242100Z 08005KT 030V120 15SM -RA OVC028 19/15 A2939 RMK SC8 SLP960 DENSITY ALT 1700FT

时间: 16:28 (21:28 UTC)

预报

该预报发布于26小时和48分钟前的18:40 UTC
预报有效从24日的 19点(UTC)到 25日的 07点(UTC)
风速6节,风向南转西南
能見度: 10公里
多云层高于3000英尺
阴天层高于8000英尺
短暂存在
从 24日的 19点(UTC)到 25日的 02点(UTC)
能見度: 10公里
多云层高于2000英尺
多云层高于4000英尺, 积雨云.
小阵雨, 附近有雷暴
成为
从 24日的 19点(UTC)到 24日的 21点(UTC)
风速15节,风向北转东北,有时为25节阵风
从 25日的 0200点(UTC)
风速20节,风向北转东北
能見度: 10公里
散云层高于1500英尺
多云层高于3000英尺

TAF: CYGX 241840Z 2419/2507 20006KT P6SM BKN030 OVC080 TEMPO 2419/2502 P6SM -SHRA VCTS BKN020 BKN040CB BECMG 2419/2421 03015G25KT FM250200 03020KT P6SM SCT015 BKN030 RMK NXT FCST BY 250100Z

超过4000个机场的气象观测和天气预报(METAR&TAF报告)。

可查询的气象台以黄色和红色小点在地图上表示。

将鼠标移到小点上方,可查看气象台名称。

然后点击查看天气观测和预报。

如需切换地图:点击带黑十字的绿色按钮放大地图;点击带横线的绿色按钮缩小地图;或者点击绿色箭头查看邻近地区的地图。


METAR-TAF: